Time;durP1;ratioP1;P1;durP2;ratioP2;P2;SDS_P1;SDS_P2;PMS_P1;PMS_P2;Temp;Humidity;BMP_temperature;BMP_pressure;BME280_temperature;BME280_humidity;BME280_pressure;Samples;Min_cycle;Max_cycle;Signal;HPM_P1;HPM_P2
2023/07/30 00:00:19;;;;;;;;;;;;;;;;;;5069962;28;4802;-58
2023/07/30 00:02:44;;;;;;;;;;;;;;;;;;5070949;28;5077;-58
2023/07/30 00:05:10;;;;;;;;;;;;;;;;;;5067361;28;1293;-58
2023/07/30 00:07:35;;;;;;;;;;;;;;;;;;5067711;28;5110;-58
2023/07/30 00:10:00;;;;;;;;;;;;;;;;;;5069959;28;4662;-58
2023/07/30 00:12:25;;;;;;;;;;;;;;;;;;5070025;28;5041;-58
2023/07/30 00:14:51;;;;;;;;;;;;;;;;;;5067443;28;4447;-58
2023/07/30 00:17:16;;;;;;;;;;;;;;;;;;5075033;28;1101;-58
2023/07/30 00:19:41;;;;;;;;;;;;;;;;;;5070339;28;4596;-58
2023/07/30 00:22:06;;;;;;;;;;;;;;;;;;5069845;28;5155;-58
2023/07/30 00:24:32;;;;;;;;;;;;;;;;;;5068512;28;5084;-57
2023/07/30 00:26:57;;;;;;;;;;;;;;;;;;5070240;28;5138;-57
2023/07/30 00:29:22;;;;;;;;;;;;;;;;;;5069247;28;1918;-58
2023/07/30 00:31:47;;;;;;;;;;;;;;;;;;5072480;28;4920;-58
2023/07/30 00:34:13;;;;;;;;;;;;;;;;;;5069904;28;4506;-58
2023/07/30 00:36:38;;;;;;;;;;;;;;;;;;5069682;28;4991;-58
2023/07/30 00:39:03;;;;;;;;;;;;;;;;;;5069506;28;4866;-57
2023/07/30 00:41:29;;;;;;;;;;;;;;;;;;5070086;28;1089;-58
2023/07/30 00:43:54;;;;;;;;;;;;;;;;;;5068014;28;5016;-58
2023/07/30 00:46:19;;;;;;;;;;;;;;;;;;5076944;28;4491;-58
2023/07/30 00:48:44;;;;;;;;;;;;;;;;;;5067837;28;5088;-57
2023/07/30 00:51:10;;;;;;;;;;;;;;;;;;5067794;28;4998;-58
2023/07/30 00:53:37;;;;;;;;;;;;;;;;;;5070103;28;1475;-58
2023/07/30 00:56:02;;;;;;;;;;;;;;;;;;5069516;28;4810;-57
2023/07/30 00:58:27;;;;;;;;;;;;;;;;;;5063770;28;5033;-57
2023/07/30 01:00:53;;;;;;;;;;;;;;;;;;5069678;28;4856;-57
2023/07/30 01:03:18;;;;;;;;;;;;;;;;;;5051554;28;5064;-58
2023/07/30 01:05:44;;;;;;;;;;;;;;;;;;5069730;28;5049;-58
2023/07/30 01:08:09;;;;;;;;;;;;;;;;;;5069148;28;1980;-58
2023/07/30 01:10:34;;;;;;;;;;;;;;;;;;5068918;28;5015;-57
2023/07/30 01:13:00;;;;;;;;;;;;;;;;;;5051010;28;4863;-58
2023/07/30 01:15:25;;;;;;;;;;;;;;;;;;5051317;28;5075;-58
2023/07/30 01:17:50;;;;;;;;;;;;;;;;;;5050810;28;4484;-58
2023/07/30 01:20:15;;;;;;;;;;;;;;;;;;5051564;28;1105;-57
2023/07/30 01:22:40;;;;;;;;;;;;;;;;;;5067959;28;4582;-57
2023/07/30 01:25:06;;;;;;;;;;;;;;;;;;5068914;28;5124;-58
2023/07/30 01:27:33;;;;;;;;;;;;;;;;;;5068848;28;5120;-58
2023/07/30 01:30:17;;;;;;;;;;;;;;;;;;5068593;28;4547;-57
2023/07/30 01:32:43;;;;;;;;;;;;;;;;;;5068730;28;4850;-57
2023/07/30 01:35:08;;;;;;;;;;;;;;;;;;5051254;28;1442;-58
2023/07/30 01:37:33;;;;;;;;;;;;;;;;;;5050488;28;5086;-58
2023/07/30 01:39:59;;;;;;;;;;;;;;;;;;5051046;28;5079;-57
2023/07/30 01:42:28;;;;;;;;;;;;;;;;;;5068808;28;5074;-58
2023/07/30 01:44:53;;;;;;;;;;;;;;;;;;5061986;28;4481;-58
2023/07/30 01:47:18;;;;;;;;;;;;;;;;;;5068997;28;1144;-58
2023/07/30 01:49:43;;;;;;;;;;;;;;;;;;5068010;28;4961;-58
2023/07/30 01:52:08;;;;;;;;;;;;;;;;;;5068196;28;5151;-58
2023/07/30 01:54:34;;;;;;;;;;;;;;;;;;5068524;28;5123;-58
2023/07/30 01:56:59;;;;;;;;;;;;;;;;;;5067693;28;4487;-57
2023/07/30 01:59:24;;;;;;;;;;;;;;;;;;5066681;28;1742;-57
2023/07/30 02:01:50;;;;;;;;;;;;;;;;;;5068869;28;5087;-57
2023/07/30 02:04:17;;;;;;;;;;;;;;;;;;5045295;28;5019;-57
2023/07/30 02:06:42;;;;;;;;;;;;;;;;;;5068224;28;4958;-57
2023/07/30 02:09:07;;;;;;;;;;;;;;;;;;5067195;28;5084;-58
2023/07/30 02:11:33;;;;;;;;;;;;;;;;;;5076723;28;1076;-58
2023/07/30 02:13:58;;;;;;;;;;;;;;;;;;5067241;28;4889;-58
2023/07/30 02:16:23;;;;;;;;;;;;;;;;;;5068419;28;4864;-59
2023/07/30 02:18:48;;;;;;;;;;;;;;;;;;5067622;28;5011;-57
2023/07/30 02:21:14;;;;;;;;;;;;;;;;;;5068160;28;4551;-58
2023/07/30 02:23:39;;;;;;;;;;;;;;;;;;5071263;28;1171;-58
2023/07/30 02:26:04;;;;;;;;;;;;;;;;;;5067949;28;5004;-58
2023/07/30 02:28:29;;;;;;;;;;;;;;;;;;5061482;28;4649;-58
2023/07/30 02:30:55;;;;;;;;;;;;;;;;;;5067274;28;5103;-58
2023/07/30 02:33:20;;;;;;;;;;;;;;;;;;5067975;28;5080;-58
2023/07/30 02:35:45;;;;;;;;;;;;;;;;;;5067180;28;5091;-58
2023/07/30 02:38:10;;;;;;;;;;;;;;;;;;5068266;28;1115;-58
2023/07/30 02:40:36;;;;;;;;;;;;;;;;;;5067687;28;5066;-58
2023/07/30 02:43:01;;;;;;;;;;;;;;;;;;5057474;28;4994;-58
2023/07/30 02:45:26;;;;;;;;;;;;;;;;;;5048595;28;5054;-58
2023/07/30 02:47:51;;;;;;;;;;;;;;;;;;5067707;28;6185;-58
2023/07/30 02:50:17;;;;;;;;;;;;;;;;;;5049650;28;5111;-58
2023/07/30 02:52:42;;;;;;;;;;;;;;;;;;5065238;28;4934;-58
2023/07/30 02:55:07;;;;;;;;;;;;;;;;;;5067179;28;4641;-58
2023/07/30 02:57:33;;;;;;;;;;;;;;;;;;5066514;28;4463;-58
2023/07/30 02:59:58;;;;;;;;;;;;;;;;;;5066472;28;4865;-58
2023/07/30 03:02:23;;;;;;;;;;;;;;;;;;5067631;28;1136;-59
2023/07/30 03:04:48;;;;;;;;;;;;;;;;;;5067379;28;5326;-58
2023/07/30 03:07:14;;;;;;;;;;;;;;;;;;5068145;28;5108;-58
2023/07/30 03:09:39;;;;;;;;;;;;;;;;;;5066992;28;4964;-58
2023/07/30 03:12:04;;;;;;;;;;;;;;;;;;5066820;28;5467;-59
2023/07/30 03:14:30;;;;;;;;;;;;;;;;;;5068219;28;1073;-58
2023/07/30 03:16:55;;;;;;;;;;;;;;;;;;5066968;28;5034;-58
2023/07/30 03:19:20;;;;;;;;;;;;;;;;;;5067299;28;5109;-57
2023/07/30 03:21:45;;;;;;;;;;;;;;;;;;5073050;28;5070;-57
2023/07/30 03:24:11;;;;;;;;;;;;;;;;;;5071264;28;4639;-59
2023/07/30 03:26:36;;;;;;;;;;;;;;;;;;5072406;28;1106;-57
2023/07/30 03:29:01;;;;;;;;;;;;;;;;;;5051777;28;5052;-58
2023/07/30 03:31:28;;;;;;;;;;;;;;;;;;5071292;28;4463;-58
2023/07/30 03:33:53;;;;;;;;;;;;;;;;;;5072017;28;4937;-59
2023/07/30 03:36:19;;;;;;;;;;;;;;;;;;5070886;28;5041;-58
2023/07/30 03:38:44;;;;;;;;;;;;;;;;;;5070644;28;5009;-58
2023/07/30 03:41:10;;;;;;;;;;;;;;;;;;5071278;28;1120;-58
2023/07/30 03:43:35;;;;;;;;;;;;;;;;;;5066891;28;5049;-59
2023/07/30 03:46:00;;;;;;;;;;;;;;;;;;5071158;28;4866;-58
2023/07/30 03:48:26;;;;;;;;;;;;;;;;;;5055425;28;4957;-60
2023/07/30 03:50:52;;;;;;;;;;;;;;;;;;5052917;28;5100;-59
2023/07/30 03:53:17;;;;;;;;;;;;;;;;;;5070864;28;1711;-58
2023/07/30 03:55:42;;;;;;;;;;;;;;;;;;5071349;28;5037;-58
2023/07/30 03:58:08;;;;;;;;;;;;;;;;;;5069497;28;5051;-59
2023/07/30 04:00:33;;;;;;;;;;;;;;;;;;5070993;28;4976;-59
2023/07/30 04:02:58;;;;;;;;;;;;;;;;;;5073255;28;4458;-58
2023/07/30 04:05:23;;;;;;;;;;;;;;;;;;5070683;28;1894;-59
2023/07/30 04:07:49;;;;;;;;;;;;;;;;;;5070344;28;4656;-58
2023/07/30 04:10:14;;;;;;;;;;;;;;;;;;5070145;28;5123;-58
2023/07/30 04:12:39;;;;;;;;;;;;;;;;;;5069949;28;5339;-58
2023/07/30 04:15:05;;;;;;;;;;;;;;;;;;5070470;28;4643;-59
2023/07/30 04:17:30;;;;;;;;;;;;;;;;;;5067040;28;1317;-59
2023/07/30 04:19:55;;;;;;;;;;;;;;;;;;5068825;28;5132;-58
2023/07/30 04:22:21;;;;;;;;;;;;;;;;;;5068478;28;4987;-58
2023/07/30 04:24:46;;;;;;;;;;;;;;;;;;5064883;28;5021;-59
2023/07/30 04:27:11;;;;;;;;;;;;;;;;;;5051772;28;4659;-59
2023/07/30 04:29:37;;;;;;;;;;;;;;;;;;5068842;28;1971;-59
2023/07/30 04:32:02;;;;;;;;;;;;;;;;;;5077328;28;4837;-59
2023/07/30 04:34:27;;;;;;;;;;;;;;;;;;5069868;28;5284;-59
2023/07/30 04:36:52;;;;;;;;;;;;;;;;;;5070038;28;5060;-58
2023/07/30 04:39:18;;;;;;;;;;;;;;;;;;5070090;28;5249;-59
2023/07/30 04:41:43;;;;;;;;;;;;;;;;;;5065814;28;5005;-58
2023/07/30 04:44:08;;;;;;;;;;;;;;;;;;5070982;28;1081;-59
2023/07/30 04:46:33;;;;;;;;;;;;;;;;;;5070538;28;4642;-59
2023/07/30 04:49:01;;;;;;;;;;;;;;;;;;5069360;28;5187;-58
2023/07/30 04:51:26;;;;;;;;;;;;;;;;;;5049277;28;4970;-58
2023/07/30 04:53:51;;;;;;;;;;;;;;;;;;5069423;28;4844;-58
2023/07/30 04:56:17;;;;;;;;;;;;;;;;;;5070543;28;1239;-58
2023/07/30 04:58:42;;;;;;;;;;;;;;;;;;5069582;28;4439;-59
2023/07/30 05:01:07;;;;;;;;;;;;;;;;;;5069563;28;4625;-59
2023/07/30 05:03:32;;;;;;;;;;;;;;;;;;5051369;28;4597;-59
2023/07/30 05:05:57;;;;;;;;;;;;;;;;;;5068996;28;5089;-58
2023/07/30 05:08:23;;;;;;;;;;;;;;;;;;5069845;28;1917;-58
2023/07/30 05:10:48;;;;;;;;;;;;;;;;;;5069348;28;5019;-59
2023/07/30 05:13:13;;;;;;;;;;;;;;;;;;5068386;28;5026;-59
2023/07/30 05:15:39;;;;;;;;;;;;;;;;;;5066046;28;5063;-59
2023/07/30 05:18:04;;;;;;;;;;;;;;;;;;5069346;28;5195;-59
2023/07/30 05:20:29;;;;;;;;;;;;;;;;;;5069524;28;1193;-59
2023/07/30 05:22:54;;;;;;;;;;;;;;;;;;5067394;28;4970;-59
2023/07/30 05:25:20;;;;;;;;;;;;;;;;;;5069529;28;5071;-59
2023/07/30 05:27:45;;;;;;;;;;;;;;;;;;5070054;28;5041;-58
2023/07/30 05:30:10;;;;;;;;;;;;;;;;;;5063843;28;5142;-58
2023/07/30 05:32:35;;;;;;;;;;;;;;;;;;5068949;28;1111;-59
2023/07/30 05:35:01;;;;;;;;;;;;;;;;;;5050395;28;5152;-59
2023/07/30 05:37:27;;;;;;;;;;;;;;;;;;5050428;28;4765;-59
2023/07/30 05:39:52;;;;;;;;;;;;;;;;;;5068932;28;5135;-59
2023/07/30 05:42:17;;;;;;;;;;;;;;;;;;5067501;28;5034;-59
2023/07/30 05:44:42;;;;;;;;;;;;;;;;;;5067703;28;4990;-58
2023/07/30 05:47:08;;;;;;;;;;;;;;;;;;5050593;28;1408;-58
2023/07/30 05:49:33;;;;;;;;;;;;;;;;;;5068490;28;5012;-59
2023/07/30 05:51:58;;;;;;;;;;;;;;;;;;5068576;28;5224;-59
2023/07/30 05:54:23;;;;;;;;;;;;;;;;;;5068847;28;5090;-59
2023/07/30 05:56:49;;;;;;;;;;;;;;;;;;5069615;28;4436;-59
2023/07/30 05:59:14;;;;;;;;;;;;;;;;;;5067174;28;1913;-59
2023/07/30 06:01:39;;;;;;;;;;;;;;;;;;5067916;28;5071;-59
2023/07/30 06:04:04;;;;;;;;;;;;;;;;;;5067725;28;5164;-59
2023/07/30 06:06:30;;;;;;;;;;;;;;;;;;5067937;28;5013;-58
2023/07/30 06:08:55;;;;;;;;;;;;;;;;;;5073130;28;5031;-59
2023/07/30 06:11:20;;;;;;;;;;;;;;;;;;5068536;28;1364;-59
2023/07/30 06:13:46;;;;;;;;;;;;;;;;;;5067587;28;4387;-58
2023/07/30 06:16:11;;;;;;;;;;;;;;;;;;5068160;28;5004;-59
2023/07/30 06:18:36;;;;;;;;;;;;;;;;;;5067493;28;5594;-58
2023/07/30 06:21:01;;;;;;;;;;;;;;;;;;5067588;28;4463;-59
2023/07/30 06:23:27;;;;;;;;;;;;;;;;;;5069040;28;1147;-59
2023/07/30 06:25:52;;;;;;;;;;;;;;;;;;5067660;28;4972;-58
2023/07/30 06:28:17;;;;;;;;;;;;;;;;;;5067233;28;4982;-59
2023/07/30 06:30:42;;;;;;;;;;;;;;;;;;5067566;28;4666;-59
2023/07/30 06:33:08;;;;;;;;;;;;;;;;;;5065789;28;5115;-58
2023/07/30 06:35:33;;;;;;;;;;;;;;;;;;5070029;28;1119;-58
2023/07/30 06:37:58;;;;;;;;;;;;;;;;;;5070106;28;4430;-59
2023/07/30 06:40:23;;;;;;;;;;;;;;;;;;5067223;28;5062;-59
2023/07/30 06:42:49;;;;;;;;;;;;;;;;;;5063804;28;5125;-59
2023/07/30 06:45:14;;;;;;;;;;;;;;;;;;5059157;28;5237;-59
2023/07/30 06:47:39;;;;;;;;;;;;;;;;;;5056859;28;3628;-59
2023/07/30 06:50:05;;;;;;;;;;;;;;;;;;5048601;28;5121;-59
2023/07/30 06:52:30;;;;;;;;;;;;;;;;;;5067481;28;4584;-58
2023/07/30 06:54:56;;;;;;;;;;;;;;;;;;5067063;28;5078;-59
2023/07/30 06:57:21;;;;;;;;;;;;;;;;;;5064105;28;5186;-59
2023/07/30 06:59:46;;;;;;;;;;;;;;;;;;5058894;28;4496;-59
2023/07/30 07:02:12;;;;;;;;;;;;;;;;;;5061767;28;3500;-57
2023/07/30 07:04:37;;;;;;;;;;;;;;;;;;5063825;28;4649;-57
2023/07/30 07:07:03;;;;;;;;;;;;;;;;;;5066741;28;5019;-58
2023/07/30 07:09:28;;;;;;;;;;;;;;;;;;5065055;28;5064;-57
2023/07/30 07:11:54;;;;;;;;;;;;;;;;;;5064673;28;4720;-57
2023/07/30 07:14:19;;;;;;;;;;;;;;;;;;5067148;28;3038;-57
2023/07/30 07:16:44;;;;;;;;;;;;;;;;;;5060320;28;4464;-48
2023/07/30 07:19:09;;;;;;;;;;;;;;;;;;5064771;28;5184;-59
2023/07/30 07:21:35;;;;;;;;;;;;;;;;;;5066920;28;4951;-61
2023/07/30 07:24:00;;;;;;;;;;;;;;;;;;5062909;28;5039;-62
2023/07/30 07:26:25;;;;;;;;;;;;;;;;;;5063480;28;3418;-59
2023/07/30 07:28:51;;;;;;;;;;;;;;;;;;5061714;28;5055;-49
2023/07/30 07:31:16;;;;;;;;;;;;;;;;;;5041934;28;4806;-63
2023/07/30 07:33:41;;;;;;;;;;;;;;;;;;5061902;28;5052;-61
2023/07/30 07:36:07;;;;;;;;;;;;;;;;;;5025559;28;4692;-62
2023/07/30 07:38:32;;;;;;;;;;;;;;;;;;5067176;28;3736;-50
2023/07/30 07:40:58;;;;;;;;;;;;;;;;;;5044040;28;4575;-50
2023/07/30 07:43:24;;;;;;;;;;;;;;;;;;5059615;28;5148;-61
2023/07/30 07:45:49;;;;;;;;;;;;;;;;;;5061723;28;5041;-63
2023/07/30 07:48:14;;;;;;;;;;;;;;;;;;5058570;28;5051;-60
2023/07/30 07:50:39;;;;;;;;;;;;;;;;;;5066169;28;4838;-61
2023/07/30 07:53:04;;;;;;;;;;;;;;;;;;5066622;28;5053;-61
2023/07/30 07:55:30;;;;;;;;;;;;;;;;;;5064968;28;4917;-58
2023/07/30 07:57:55;;;;;;;;;;;;;;;;;;5064346;28;5072;-62
2023/07/30 08:00:20;;;;;;;;;;;;;;;;;;5061674;28;5131;-46
2023/07/30 08:02:46;;;;;;;;;;;;;;;;;;5062429;28;4899;-51
2023/07/30 08:05:11;;;;;;;;;;;;;;;;;;5065353;28;3221;-49
2023/07/30 08:07:36;;;;;;;;;;;;;;;;;;5062132;28;5270;-54
2023/07/30 08:10:01;;;;;;;;;;;;;;;;;;5058413;28;5153;-50
2023/07/30 08:12:26;;;;;;;;;;;;;;;;;;5053800;28;4996;-50
2023/07/30 08:14:52;;;;;;;;;;;;;;;;;;5064159;28;4822;-51
2023/07/30 08:17:18;;;;;;;;;;;;;;;;;;5067627;28;3245;-48
2023/07/30 08:19:43;;;;;;;;;;;;;;;;;;5073349;28;4471;-49
2023/07/30 08:22:08;;;;;;;;;;;;;;;;;;5069402;28;4441;-47
2023/07/30 08:24:34;;;;;;;;;;;;;;;;;;5063507;28;5165;-48
2023/07/30 08:26:59;;;;;;;;;;;;;;;;;;5065123;28;5178;-46
2023/07/30 08:29:24;;;;;;;;;;;;;;;;;;5064001;28;3547;-49
2023/07/30 08:31:49;;;;;;;;;;;;;;;;;;5043084;28;4455;-49
2023/07/30 08:34:15;;;;;;;;;;;;;;;;;;5041843;28;5064;-47
2023/07/30 08:36:40;;;;;;;;;;;;;;;;;;5038257;28;4582;-48
2023/07/30 08:39:05;;;;;;;;;;;;;;;;;;5022077;28;5182;-46
2023/07/30 08:41:31;;;;;;;;;;;;;;;;;;5022657;28;3226;-48
2023/07/30 08:43:56;;;;;;;;;;;;;;;;;;5028121;28;4549;-49
2023/07/30 08:46:21;;;;;;;;;;;;;;;;;;5029520;28;5459;-51
2023/07/30 08:48:47;;;;;;;;;;;;;;;;;;5025490;28;5084;-49
2023/07/30 08:51:12;;;;;;;;;;;;;;;;;;5025896;28;4848;-49
2023/07/30 08:53:37;;;;;;;;;;;;;;;;;;5033608;28;3194;-51
2023/07/30 08:56:02;;;;;;;;;;;;;;;;;;5022432;28;4902;-51
2023/07/30 08:58:28;;;;;;;;;;;;;;;;;;5020875;28;4859;-49
2023/07/30 09:00:54;;;;;;;;;;;;;;;;;;5012831;28;4486;-47
2023/07/30 09:03:20;;;;;;;;;;;;;;;;;;5013349;28;5044;-48
2023/07/30 09:05:46;;;;;;;;;;;;;;;;;;5001830;28;4910;-47
2023/07/30 09:08:11;;;;;;;;;;;;;;;;;;5026937;28;3452;-57
2023/07/30 09:10:37;;;;;;;;;;;;;;;;;;5043885;28;4735;-58
2023/07/30 09:13:02;;;;;;;;;;;;;;;;;;5042159;28;5182;-66
2023/07/30 09:15:32;;;;;;;;;;;;;;;;;;5043582;28;4690;-64
2023/07/30 09:17:57;;;;;;;;;;;;;;;;;;5040414;28;5080;-65
2023/07/30 09:20:22;;;;;;;;;;;;;;;;;;5036415;28;3372;-55
2023/07/30 09:22:49;;;;;;;;;;;;;;;;;;5041339;28;4837;-55
2023/07/30 09:25:18;;;;;;;;;;;;;;;;;;5041153;28;5118;-55
2023/07/30 09:27:44;;;;;;;;;;;;;;;;;;5022168;28;4514;-57
2023/07/30 09:30:09;;;;;;;;;;;;;;;;;;5020678;28;5073;-55
2023/07/30 09:32:34;;;;;;;;;;;;;;;;;;5046444;28;3392;-54
2023/07/30 09:35:06;;;;;;;;;;;;;;;;;;5045984;28;4442;-59
2023/07/30 09:37:32;;;;;;;;;;;;;;;;;;5044665;28;5071;-50
2023/07/30 09:39:57;;;;;;;;;;;;;;;;;;5048646;28;5201;-56
2023/07/30 09:42:26;;;;;;;;;;;;;;;;;;5041597;28;5109;-55
2023/07/30 09:44:51;;;;;;;;;;;;;;;;;;5042894;28;5076;-51
2023/07/30 09:47:17;;;;;;;;;;;;;;;;;;5028675;28;3361;-50
2023/07/30 09:49:42;;;;;;;;;;;;;;;;;;5046790;28;5109;-48
2023/07/30 09:52:07;;;;;;;;;;;;;;;;;;5050058;28;4846;-50
2023/07/30 09:54:33;;;;;;;;;;;;;;;;;;5051478;28;4653;-48
2023/07/30 09:56:58;;;;;;;;;;;;;;;;;;5026566;28;5002;-50
2023/07/30 09:59:23;;;;;;;;;;;;;;;;;;5026332;28;3188;-46
2023/07/30 10:01:49;;;;;;;;;;;;;;;;;;5032993;28;5028;-50
2023/07/30 10:04:14;;;;;;;;;;;;;;;;;;5044344;28;4530;-48
2023/07/30 10:06:45;;;;;;;;;;;;;;;;;;5036202;28;5477;-47
2023/07/30 10:09:10;;;;;;;;;;;;;;;;;;5028694;28;5273;-47
2023/07/30 10:11:36;;;;;;;;;;;;;;;;;;5030905;28;3901;-49
2023/07/30 10:14:01;;;;;;;;;;;;;;;;;;5028740;28;4810;-48
2023/07/30 10:16:27;;;;;;;;;;;;;;;;;;5031052;28;4936;-49
2023/07/30 10:18:55;;;;;;;;;;;;;;;;;;5047762;28;5029;-47
2023/07/30 10:21:24;;;;;;;;;;;;;;;;;;5047224;28;4934;-48
2023/07/30 10:23:59;;;;;;;;;;;;;;;;;;5025108;28;5120;-52
2023/07/30 10:26:28;;;;;;;;;;;;;;;;;;5042251;28;1165;-50
2023/07/30 10:29:12;;;;;;;;;;;;;;;;;;5046084;28;4961;-50
2023/07/30 10:31:38;;;;;;;;;;;;;;;;;;5046277;28;4950;-47
2023/07/30 10:34:06;;;;;;;;;;;;;;;;;;5047050;28;4981;-47
2023/07/30 10:36:32;;;;;;;;;;;;;;;;;;5029298;28;5025;-50
2023/07/30 10:38:58;;;;;;;;;;;;;;;;;;5039899;28;5187;-50
2023/07/30 10:41:24;;;;;;;;;;;;;;;;;;5029692;28;1249;-51
2023/07/30 10:43:49;;;;;;;;;;;;;;;;;;5027779;28;4966;-50
2023/07/30 10:46:15;;;;;;;;;;;;;;;;;;5049093;28;4440;-51
2023/07/30 10:48:42;;;;;;;;;;;;;;;;;;5047731;28;5086;-48
2023/07/30 10:51:08;;;;;;;;;;;;;;;;;;5047027;28;5034;-48
2023/07/30 10:53:35;;;;;;;;;;;;;;;;;;5048114;28;1299;-49
2023/07/30 10:56:02;;;;;;;;;;;;;;;;;;5045682;28;5019;-50
2023/07/30 10:58:28;;;;;;;;;;;;;;;;;;5028369;28;4656;-50
2023/07/30 11:00:54;;;;;;;;;;;;;;;;;;5029086;28;5113;-49
2023/07/30 11:03:19;;;;;;;;;;;;;;;;;;5029261;28;5068;-49
2023/07/30 11:05:48;;;;;;;;;;;;;;;;;;5047307;28;5141;-52
2023/07/30 11:08:14;;;;;;;;;;;;;;;;;;5047388;28;1247;-49
2023/07/30 11:10:43;;;;;;;;;;;;;;;;;;5046780;28;5061;-49
2023/07/30 11:13:08;;;;;;;;;;;;;;;;;;5046820;28;4980;-50
2023/07/30 11:15:33;;;;;;;;;;;;;;;;;;5046758;28;4871;-50
2023/07/30 11:17:59;;;;;;;;;;;;;;;;;;5047331;28;4999;-50
2023/07/30 11:20:26;;;;;;;;;;;;;;;;;;5047799;28;1129;-50
2023/07/30 11:22:52;;;;;;;;;;;;;;;;;;5045663;28;4881;-51
2023/07/30 11:25:17;;;;;;;;;;;;;;;;;;5029382;28;5023;-49
2023/07/30 11:27:48;;;;;;;;;;;;;;;;;;5028763;28;4677;-51
2023/07/30 11:30:14;;;;;;;;;;;;;;;;;;5046616;28;5178;-49
2023/07/30 11:32:39;;;;;;;;;;;;;;;;;;5047686;28;1287;-49
2023/07/30 11:35:05;;;;;;;;;;;;;;;;;;5047413;28;5179;-47
2023/07/30 11:37:31;;;;;;;;;;;;;;;;;;5024828;28;4562;-54
2023/07/30 11:39:56;;;;;;;;;;;;;;;;;;5047441;28;5244;-52
2023/07/30 11:42:21;;;;;;;;;;;;;;;;;;5027790;28;5067;-51
2023/07/30 11:44:46;;;;;;;;;;;;;;;;;;5035056;28;5040;-52
2023/07/30 11:47:12;;;;;;;;;;;;;;;;;;5054327;28;1239;-49
2023/07/30 11:49:37;;;;;;;;;;;;;;;;;;5024611;28;4962;-52
2023/07/30 11:52:07;;;;;;;;;;;;;;;;;;5041753;28;5678;-49
2023/07/30 11:54:32;;;;;;;;;;;;;;;;;;5050872;28;5137;-51
2023/07/30 11:56:57;;;;;;;;;;;;;;;;;;5059521;28;5017;-51
2023/07/30 11:59:23;;;;;;;;;;;;;;;;;;5064124;28;1505;-48
2023/07/30 12:01:48;;;;;;;;;;;;;;;;;;5073343;28;4972;-49
2023/07/30 12:04:13;;;;;;;;;;;;;;;;;;5065765;28;5072;-52
2023/07/30 12:06:46;;;;;;;;;;;;;;;;;;5048690;28;4653;-50
2023/07/30 12:09:12;;;;;;;;;;;;;;;;;;5061878;28;5115;-50
2023/07/30 12:12:04;;;;;;;;;;;;;;;;;;5066840;28;1159;-49
2023/07/30 12:14:33;;;;;;;;;;;;;;;;;;5044809;28;5097;-50
2023/07/30 12:17:01;;;;;;;;;;;;;;;;;;5034671;28;4931;-49
2023/07/30 12:19:26;;;;;;;;;;;;;;;;;;5050397;28;5096;-52
2023/07/30 12:21:52;;;;;;;;;;;;;;;;;;5050570;28;4750;-52
2023/07/30 12:24:17;;;;;;;;;;;;;;;;;;5057438;28;4966;-49
2023/07/30 12:26:42;;;;;;;;;;;;;;;;;;5053864;28;4934;-49
2023/07/30 12:29:07;;;;;;;;;;;;;;;;;;5034559;28;1910;-51
2023/07/30 12:31:33;;;;;;;;;;;;;;;;;;5054933;28;4940;-49
2023/07/30 12:33:58;;;;;;;;;;;;;;;;;;5060118;28;4427;-51
2023/07/30 12:36:23;;;;;;;;;;;;;;;;;;5069961;28;4942;-52
2023/07/30 12:38:48;;;;;;;;;;;;;;;;;;5062151;28;5016;-49
2023/07/30 12:41:14;;;;;;;;;;;;;;;;;;5070074;28;1226;-48
2023/07/30 12:43:39;;;;;;;;;;;;;;;;;;5075051;28;5149;-48
2023/07/30 12:46:04;;;;;;;;;;;;;;;;;;5069675;28;5492;-49
2023/07/30 12:48:29;;;;;;;;;;;;;;;;;;5069192;28;5122;-49
2023/07/30 12:50:55;;;;;;;;;;;;;;;;;;5051296;28;5369;-54
2023/07/30 12:53:20;;;;;;;;;;;;;;;;;;5051527;28;1194;-51
2023/07/30 12:55:45;;;;;;;;;;;;;;;;;;5069580;28;5005;-50
2023/07/30 12:58:11;;;;;;;;;;;;;;;;;;5070123;28;4868;-52
2023/07/30 13:00:36;;;;;;;;;;;;;;;;;;5060635;28;5195;-51
2023/07/30 13:03:02;;;;;;;;;;;;;;;;;;5069680;28;5003;-50
2023/07/30 13:05:27;;;;;;;;;;;;;;;;;;5070233;28;1176;-50
2023/07/30 13:07:52;;;;;;;;;;;;;;;;;;5069075;28;4677;-52
2023/07/30 13:10:17;;;;;;;;;;;;;;;;;;5069485;28;5167;-50
2023/07/30 13:12:43;;;;;;;;;;;;;;;;;;5068946;28;4973;-50
2023/07/30 13:15:08;;;;;;;;;;;;;;;;;;5069455;28;5013;-50
2023/07/30 13:17:33;;;;;;;;;;;;;;;;;;5061802;28;1226;-49
2023/07/30 13:19:59;;;;;;;;;;;;;;;;;;5069353;28;4981;-51
2023/07/30 13:22:24;;;;;;;;;;;;;;;;;;5067723;28;4925;-50
2023/07/30 13:24:49;;;;;;;;;;;;;;;;;;5069484;28;5196;-48
2023/07/30 13:27:15;;;;;;;;;;;;;;;;;;5069033;28;5017;-51
2023/07/30 13:29:40;;;;;;;;;;;;;;;;;;5044092;28;1983;-49
2023/07/30 13:32:05;;;;;;;;;;;;;;;;;;5062828;28;5044;-49
2023/07/30 13:34:31;;;;;;;;;;;;;;;;;;5068874;28;5075;-50
2023/07/30 13:36:56;;;;;;;;;;;;;;;;;;5050806;28;5206;-51
2023/07/30 13:39:21;;;;;;;;;;;;;;;;;;5069111;28;4421;-52
2023/07/30 13:41:47;;;;;;;;;;;;;;;;;;5068288;28;4969;-48
2023/07/30 13:44:12;;;;;;;;;;;;;;;;;;5067838;28;1121;-51
2023/07/30 13:46:39;;;;;;;;;;;;;;;;;;5068288;28;4848;-50
2023/07/30 13:49:05;;;;;;;;;;;;;;;;;;5068704;28;4996;-49
2023/07/30 13:51:32;;;;;;;;;;;;;;;;;;5068570;28;5070;-49
2023/07/30 13:54:00;;;;;;;;;;;;;;;;;;5069323;28;4717;-51
2023/07/30 13:56:26;;;;;;;;;;;;;;;;;;5069344;28;1128;-55
2023/07/30 13:58:51;;;;;;;;;;;;;;;;;;5061425;28;4994;-48
2023/07/30 14:01:16;;;;;;;;;;;;;;;;;;5060110;28;4618;-49
2023/07/30 14:03:43;;;;;;;;;;;;;;;;;;5060077;28;5106;-49
2023/07/30 14:06:08;;;;;;;;;;;;;;;;;;5029410;28;4998;-48
2023/07/30 14:08:33;;;;;;;;;;;;;;;;;;5048595;28;1069;-50
2023/07/30 14:11:00;;;;;;;;;;;;;;;;;;5048038;28;5152;-49
2023/07/30 14:13:25;;;;;;;;;;;;;;;;;;5048468;28;5165;-55
2023/07/30 14:15:50;;;;;;;;;;;;;;;;;;5045464;28;5006;-50
2023/07/30 14:18:16;;;;;;;;;;;;;;;;;;5048040;28;4434;-50
2023/07/30 14:20:41;;;;;;;;;;;;;;;;;;5048380;28;1201;-50
2023/07/30 14:23:06;;;;;;;;;;;;;;;;;;5066607;28;5087;-48
2023/07/30 14:25:32;;;;;;;;;;;;;;;;;;5067322;28;5040;-49
2023/07/30 14:27:57;;;;;;;;;;;;;;;;;;5066139;28;4468;-49
2023/07/30 14:30:23;;;;;;;;;;;;;;;;;;5060315;28;5076;-52
2023/07/30 14:32:48;;;;;;;;;;;;;;;;;;5067291;28;4869;-49
2023/07/30 14:35:13;;;;;;;;;;;;;;;;;;5070234;28;1124;-48
2023/07/30 14:37:38;;;;;;;;;;;;;;;;;;5067672;28;5128;-48
2023/07/30 14:40:04;;;;;;;;;;;;;;;;;;5056502;28;5048;-46
2023/07/30 14:42:29;;;;;;;;;;;;;;;;;;5044119;28;5063;-48
2023/07/30 14:44:55;;;;;;;;;;;;;;;;;;5029746;28;5063;-49
2023/07/30 14:47:22;;;;;;;;;;;;;;;;;;5048123;28;1133;-51
2023/07/30 14:49:47;;;;;;;;;;;;;;;;;;5064299;28;4980;-48
2023/07/30 14:52:12;;;;;;;;;;;;;;;;;;5057242;28;4906;-48
2023/07/30 14:54:37;;;;;;;;;;;;;;;;;;5058592;28;4961;-48
2023/07/30 14:57:03;;;;;;;;;;;;;;;;;;5065104;28;5141;-48
2023/07/30 14:59:28;;;;;;;;;;;;;;;;;;5038710;28;1381;-48
2023/07/30 15:01:53;;;;;;;;;;;;;;;;;;5066769;28;4964;-48
2023/07/30 15:04:18;;;;;;;;;;;;;;;;;;5061159;28;4445;-48
2023/07/30 15:06:44;;;;;;;;;;;;;;;;;;5055459;28;4941;-49
2023/07/30 15:09:10;;;;;;;;;;;;;;;;;;5066812;28;5083;-49
2023/07/30 15:11:36;;;;;;;;;;;;;;;;;;5068066;28;1068;-48
2023/07/30 15:14:01;;;;;;;;;;;;;;;;;;5048519;28;4843;-49
2023/07/30 15:16:26;;;;;;;;;;;;;;;;;;5066846;28;4695;-49
2023/07/30 15:18:52;;;;;;;;;;;;;;;;;;5063539;28;4628;-48
2023/07/30 15:21:17;;;;;;;;;;;;;;;;;;5066998;28;4477;-49
2023/07/30 15:23:42;;;;;;;;;;;;;;;;;;5065311;28;1247;-51
2023/07/30 15:26:08;;;;;;;;;;;;;;;;;;5067375;28;5008;-50
2023/07/30 15:28:33;;;;;;;;;;;;;;;;;;5064610;28;4410;-48
2023/07/30 15:30:59;;;;;;;;;;;;;;;;;;5066339;28;4887;-50
2023/07/30 15:33:24;;;;;;;;;;;;;;;;;;5058507;28;4918;-50
2023/07/30 15:35:49;;;;;;;;;;;;;;;;;;5055416;28;4785;-48
2023/07/30 15:38:15;;;;;;;;;;;;;;;;;;5064977;28;3332;-48
2023/07/30 15:40:42;;;;;;;;;;;;;;;;;;5038241;28;4614;-59
2023/07/30 15:43:07;;;;;;;;;;;;;;;;;;5034959;28;5151;-62
2023/07/30 15:45:33;;;;;;;;;;;;;;;;;;5046771;28;4907;-62
2023/07/30 15:47:58;;;;;;;;;;;;;;;;;;5045764;28;5225;-61
2023/07/30 15:50:26;;;;;;;;;;;;;;;;;;5062536;28;5055;-54
2023/07/30 15:52:51;;;;;;;;;;;;;;;;;;5043040;28;5041;-59
2023/07/30 15:55:16;;;;;;;;;;;;;;;;;;5046317;28;5104;-58
2023/07/30 15:57:42;;;;;;;;;;;;;;;;;;5030912;28;4514;-58
2023/07/30 16:00:08;;;;;;;;;;;;;;;;;;5043923;28;5012;-61
2023/07/30 16:02:33;;;;;;;;;;;;;;;;;;5064686;28;3721;-59
2023/07/30 16:04:58;;;;;;;;;;;;;;;;;;5062145;28;4426;-57
2023/07/30 16:07:23;;;;;;;;;;;;;;;;;;5068340;28;5489;-57
2023/07/30 16:09:49;;;;;;;;;;;;;;;;;;5066237;28;5081;-59
2023/07/30 16:12:14;;;;;;;;;;;;;;;;;;5061979;28;5065;-63
2023/07/30 16:14:39;;;;;;;;;;;;;;;;;;5054990;28;3781;-63
2023/07/30 16:17:05;;;;;;;;;;;;;;;;;;5066499;28;4629;-64
2023/07/30 16:19:30;;;;;;;;;;;;;;;;;;5064372;28;5037;-64
2023/07/30 16:21:55;;;;;;;;;;;;;;;;;;5061236;28;5005;-63
2023/07/30 16:24:21;;;;;;;;;;;;;;;;;;5061644;28;5230;-65
2023/07/30 16:26:46;;;;;;;;;;;;;;;;;;5064711;28;5179;-61
2023/07/30 16:29:11;;;;;;;;;;;;;;;;;;5065389;28;3700;-61
2023/07/30 16:31:37;;;;;;;;;;;;;;;;;;5046006;28;4843;-60
2023/07/30 16:34:02;;;;;;;;;;;;;;;;;;5033418;28;5028;-64
2023/07/30 16:36:27;;;;;;;;;;;;;;;;;;5048158;28;4723;-54
2023/07/30 16:38:53;;;;;;;;;;;;;;;;;;5047313;28;4712;-53
2023/07/30 16:41:18;;;;;;;;;;;;;;;;;;5046230;28;3332;-53
2023/07/30 16:43:43;;;;;;;;;;;;;;;;;;5034923;28;5247;-56
2023/07/30 16:46:09;;;;;;;;;;;;;;;;;;5061468;28;4478;-54
2023/07/30 16:48:35;;;;;;;;;;;;;;;;;;5044953;28;5126;-54
2023/07/30 16:51:00;;;;;;;;;;;;;;;;;;5049677;28;4796;-54